createdAt,value
2023-02-11T00:00:09.860Z,192.70
2023-02-11T00:01:09.800Z,190.64
2023-02-11T00:02:09.911Z,191.26
2023-02-11T00:03:09.882Z,190.47
2023-02-11T00:04:09.774Z,188.98
2023-02-11T00:05:09.782Z,185.75
2023-02-11T00:06:09.782Z,189.17
2023-02-11T00:07:09.918Z,188.22
2023-02-11T00:08:09.724Z,187.77
2023-02-11T00:09:09.709Z,189.71
2023-02-11T00:10:09.727Z,189.34
2023-02-11T00:11:09.670Z,187.47
2023-02-11T00:12:09.664Z,186.06
2023-02-11T00:13:09.656Z,184.29
2023-02-11T00:14:09.642Z,185.40
2023-02-11T00:15:09.592Z,182.20
2023-02-11T00:16:09.635Z,184.02
2023-02-11T00:17:09.597Z,183.19
2023-02-11T00:18:09.696Z,182.92
2023-02-11T00:19:09.526Z,183.87
2023-02-11T00:20:09.531Z,182.08
2023-02-11T00:21:09.496Z,181.83
2023-02-11T00:22:09.464Z,181.61
2023-02-11T00:23:09.501Z,181.59
2023-02-11T00:24:09.466Z,179.75
2023-02-11T00:25:09.418Z,177.26
2023-02-11T00:26:09.395Z,177.68
2023-02-11T00:27:09.348Z,177.87
2023-02-11T00:28:09.394Z,177.68
2023-02-11T00:29:09.363Z,178.38
2023-02-11T00:30:09.347Z,177.32
2023-02-11T00:31:09.525Z,178.23
2023-02-11T00:32:09.335Z,177.84
2023-02-11T00:33:09.350Z,177.45
2023-02-11T00:34:09.306Z,176.32
2023-02-11T00:35:09.310Z,175.88
2023-02-11T00:36:09.307Z,174.31
2023-02-11T00:37:09.263Z,175.65
2023-02-11T00:38:09.276Z,173.93
2023-02-11T00:39:09.269Z,173.12
2023-02-11T00:40:09.234Z,173.73
2023-02-11T00:41:09.241Z,173.44
2023-02-11T00:42:09.213Z,171.46
2023-02-11T00:43:09.215Z,171.95
2023-02-11T00:44:09.191Z,173.11
2023-02-11T00:45:09.208Z,170.14
2023-02-11T00:46:09.254Z,170.21
2023-02-11T00:47:09.160Z,168.53
2023-02-11T00:48:09.175Z,170.42
2023-02-11T00:49:09.145Z,169.27
2023-02-11T00:50:09.142Z,170.22
2023-02-11T00:51:09.134Z,169.71
2023-02-11T00:52:09.123Z,167.94
2023-02-11T00:53:09.114Z,167.78
2023-02-11T00:54:09.109Z,167.13
2023-02-11T00:55:09.081Z,166.42
2023-02-11T00:56:09.079Z,167.10
2023-02-11T00:57:09.075Z,168.19
2023-02-11T00:58:09.086Z,165.00
2023-02-11T00:59:09.055Z,165.78
2023-02-11T01:00:09.046Z,165.80
2023-02-11T01:01:09.124Z,163.00
2023-02-11T01:02:09.010Z,164.36
2023-02-11T01:03:09.029Z,164.42
2023-02-11T01:04:09.033Z,161.42
2023-02-11T01:05:09.033Z,161.97
2023-02-11T01:06:08.979Z,161.49
2023-02-11T01:07:08.974Z,161.41
2023-02-11T01:08:08.988Z,161.09
2023-02-11T01:09:08.953Z,162.10
2023-02-11T01:10:08.920Z,162.23
2023-02-11T01:11:08.926Z,161.21
2023-02-11T01:12:08.901Z,162.22
2023-02-11T01:13:08.902Z,159.96
2023-02-11T01:14:08.887Z,160.06
2023-02-11T01:15:08.897Z,156.89
2023-02-11T01:16:08.904Z,159.05
2023-02-11T01:17:08.849Z,158.04
2023-02-11T01:18:08.820Z,156.57
2023-02-11T01:19:08.834Z,158.03
2023-02-11T01:20:08.849Z,157.69
2023-02-11T01:21:08.798Z,156.57
2023-02-11T01:22:08.797Z,152.66
2023-02-11T01:23:08.784Z,154.98
2023-02-11T01:24:08.799Z,154.17
2023-02-11T01:25:08.780Z,153.96
2023-02-11T01:26:08.773Z,151.22
2023-02-11T01:27:08.775Z,153.66
2023-02-11T01:28:08.883Z,153.81
2023-02-11T01:29:08.731Z,153.03
2023-02-11T01:30:08.723Z,151.23
2023-02-11T01:31:08.749Z,150.39
2023-02-11T01:32:08.759Z,151.09
2023-02-11T01:33:08.707Z,150.69
2023-02-11T01:34:08.713Z,150.80
2023-02-11T01:35:08.718Z,150.23
2023-02-11T01:36:08.675Z,146.50
2023-02-11T01:37:08.691Z,147.65
2023-02-11T01:38:08.685Z,146.48
2023-02-11T01:39:08.728Z,148.77
2023-02-11T01:40:08.723Z,146.05
2023-02-11T01:41:08.682Z,148.17
2023-02-11T01:42:08.667Z,146.68
2023-02-11T01:43:08.667Z,145.10
2023-02-11T01:44:08.684Z,146.26
2023-02-11T01:45:08.703Z,145.57
2023-02-11T01:46:08.661Z,144.47
2023-02-11T01:47:08.608Z,145.43
2023-02-11T01:48:08.593Z,143.83
2023-02-11T01:49:08.652Z,142.38
2023-02-11T01:50:08.564Z,142.15
2023-02-11T01:51:08.570Z,138.64
2023-02-11T01:52:08.538Z,141.52
2023-02-11T01:53:08.540Z,143.81
2023-02-11T01:54:08.542Z,138.53
2023-02-11T01:55:08.541Z,139.63
2023-02-11T01:56:08.484Z,138.17
2023-02-11T01:57:08.501Z,137.81
2023-02-11T01:58:08.470Z,137.32
2023-02-11T01:59:08.481Z,139.12
2023-02-11T02:00:08.432Z,137.47
2023-02-11T02:01:08.433Z,136.05
2023-02-11T02:02:08.422Z,136.66
2023-02-11T02:03:08.455Z,137.64
2023-02-11T02:04:08.395Z,135.35
2023-02-11T02:05:08.421Z,135.24
2023-02-11T02:06:08.472Z,136.14
2023-02-11T02:07:08.409Z,132.76
2023-02-11T02:08:08.386Z,134.35
2023-02-11T02:09:08.395Z,134.20
2023-02-11T02:10:08.386Z,132.17
2023-02-11T02:11:08.350Z,132.00
2023-02-11T02:12:08.338Z,130.71
2023-02-11T02:13:08.351Z,130.53
2023-02-11T02:14:08.329Z,131.48
2023-02-11T02:15:08.362Z,130.04
2023-02-11T02:16:09.908Z,130.41
2023-02-11T02:17:08.266Z,129.29
2023-02-11T02:18:08.275Z,128.89
2023-02-11T02:19:08.258Z,128.70
2023-02-11T02:20:08.246Z,128.47
2023-02-11T02:21:08.248Z,126.93
2023-02-11T02:22:08.239Z,125.12
2023-02-11T02:23:08.225Z,126.51
2023-02-11T02:24:08.213Z,126.60
2023-02-11T02:25:08.187Z,125.65
2023-02-11T02:26:08.153Z,126.82
2023-02-11T02:27:08.159Z,127.15
2023-02-11T02:28:08.175Z,125.50
2023-02-11T02:29:08.191Z,126.94
2023-02-11T02:30:08.142Z,125.22
2023-02-11T02:31:08.222Z,124.18
2023-02-11T02:32:08.155Z,123.04
2023-02-11T02:33:21.947Z,123.53
2023-02-11T02:34:09.140Z,123.66
2023-02-11T02:35:08.129Z,123.86
2023-02-11T02:36:08.094Z,123.69
2023-02-11T02:37:08.095Z,125.07
2023-02-11T02:38:08.104Z,122.03
2023-02-11T02:39:08.065Z,117.92
2023-02-11T02:40:08.042Z,87.17
2023-02-11T02:41:08.099Z,70.26
2023-02-11T02:42:08.046Z,66.00
2023-02-11T02:43:08.058Z,73.07
2023-02-11T02:44:08.028Z,74.52
2023-02-11T02:45:08.046Z,57.62
2023-02-11T02:46:08.044Z,36.26
2023-02-11T02:47:08.000Z,30.92
2023-02-11T02:48:08.003Z,29.88
2023-02-11T02:49:08.015Z,32.10
2023-02-11T02:50:08.030Z,25.58
2023-02-11T02:51:08.076Z,24.93
2023-02-11T02:52:07.987Z,25.40
2023-02-11T02:53:08.001Z,25.00
2023-02-11T02:54:07.993Z,33.23
2023-02-11T02:55:08.066Z,32.88
2023-02-11T02:56:08.004Z,33.30
2023-02-11T02:57:08.007Z,30.52
2023-02-11T02:58:08.038Z,25.00
2023-02-11T02:59:07.981Z,25.04
2023-02-11T03:00:08.029Z,25.31
2023-02-11T03:01:08.054Z,26.77
2023-02-11T03:02:07.985Z,29.22
2023-02-11T03:03:07.995Z,29.69
2023-02-11T03:04:08.060Z,25.00
2023-02-11T03:05:08.015Z,25.09
2023-02-11T03:06:07.985Z,27.07
2023-02-11T03:07:07.984Z,35.90
2023-02-11T03:08:07.998Z,38.73
2023-02-11T03:09:11.047Z,28.38
2023-02-11T03:10:07.998Z,30.64
2023-02-11T03:11:07.983Z,25.17
2023-02-11T03:12:07.953Z,26.92
2023-02-11T03:13:07.955Z,30.65
2023-02-11T03:14:07.968Z,28.95
2023-02-11T03:15:07.937Z,27.86
2023-02-11T03:16:07.966Z,25.00
2023-02-11T03:17:07.958Z,25.72
2023-02-11T03:18:07.936Z,26.15
2023-02-11T03:19:07.960Z,27.37
2023-02-11T03:20:07.953Z,33.56
2023-02-11T03:21:07.963Z,33.32
2023-02-11T03:22:07.968Z,33.02
2023-02-11T03:23:07.987Z,30.81
2023-02-11T03:24:07.953Z,25.88
2023-02-11T03:25:07.941Z,25.00
2023-02-11T03:26:07.986Z,29.68
2023-02-11T03:27:08.002Z,33.84
2023-02-11T03:28:07.978Z,29.01
2023-02-11T03:29:07.951Z,26.66
2023-02-11T03:30:07.978Z,26.51
2023-02-11T03:31:08.874Z,25.24
2023-02-11T03:32:08.011Z,28.14
2023-02-11T03:33:07.943Z,34.47
2023-02-11T03:34:07.943Z,30.14
2023-02-11T03:35:07.953Z,31.04
2023-02-11T03:36:07.965Z,31.16
2023-02-11T03:37:07.957Z,31.63
2023-02-11T03:38:07.964Z,31.93
2023-02-11T03:39:07.935Z,32.29
2023-02-11T03:40:07.932Z,37.25
2023-02-11T03:41:07.990Z,36.13
2023-02-11T03:42:07.939Z,33.46
2023-02-11T03:43:07.947Z,30.82
2023-02-11T03:44:07.939Z,27.48
2023-02-11T03:45:07.942Z,25.00
2023-02-11T03:46:07.972Z,27.38
2023-02-11T03:47:07.934Z,31.63
2023-02-11T03:48:07.951Z,25.05
2023-02-11T03:49:07.935Z,26.91
2023-02-11T03:50:07.947Z,25.00
2023-02-11T03:51:07.956Z,25.40
2023-02-11T03:52:07.948Z,26.07
2023-02-11T03:53:07.931Z,35.40
2023-02-11T03:54:07.959Z,36.84
2023-02-11T03:55:07.929Z,32.49
2023-02-11T03:56:07.942Z,37.44
2023-02-11T03:57:07.914Z,36.71
2023-02-11T03:58:07.921Z,32.05
2023-02-11T03:59:07.900Z,38.00
2023-02-11T04:00:07.902Z,38.96
2023-02-11T04:01:07.946Z,40.13
2023-02-11T04:02:08.776Z,35.05
2023-02-11T04:03:07.888Z,33.94
2023-02-11T04:04:07.871Z,34.43
2023-02-11T04:05:07.900Z,33.07
2023-02-11T04:06:07.876Z,33.14
2023-02-11T04:07:07.843Z,33.63
2023-02-11T04:08:07.857Z,33.55
2023-02-11T04:09:07.874Z,32.33
2023-02-11T04:10:07.855Z,31.64
2023-02-11T04:11:07.862Z,25.00
2023-02-11T04:12:07.878Z,30.75
2023-02-11T04:13:07.845Z,31.14
2023-02-11T04:14:07.825Z,38.75
2023-02-11T04:15:07.831Z,34.61
2023-02-11T04:16:07.908Z,29.19
2023-02-11T04:17:07.843Z,32.40
2023-02-11T04:18:07.854Z,33.57
2023-02-11T04:19:07.859Z,29.29
2023-02-11T04:20:07.836Z,33.10
2023-02-11T04:21:07.856Z,37.52
2023-02-11T04:22:07.897Z,34.40
2023-02-11T04:23:07.837Z,32.57
2023-02-11T04:24:07.818Z,31.53
2023-02-11T04:25:07.809Z,29.75
2023-02-11T04:26:07.860Z,34.76
2023-02-11T04:27:07.810Z,33.89
2023-02-11T04:28:07.845Z,36.88
2023-02-11T04:29:07.808Z,35.13
2023-02-11T04:30:07.836Z,36.03
2023-02-11T04:31:07.895Z,33.26
2023-02-11T04:32:07.927Z,34.47
2023-02-11T04:33:07.790Z,35.02
2023-02-11T04:34:07.781Z,39.95
2023-02-11T04:35:07.768Z,41.25
2023-02-11T04:36:07.788Z,35.91
2023-02-11T04:37:07.780Z,30.91
2023-02-11T04:38:07.747Z,29.58
2023-02-11T04:39:07.745Z,25.22
2023-02-11T04:40:07.740Z,27.54
2023-02-11T04:41:07.771Z,31.56
2023-02-11T04:42:07.727Z,34.48
2023-02-11T04:43:07.711Z,33.06
2023-02-11T04:44:07.722Z,29.57
2023-02-11T04:45:07.728Z,30.83
2023-02-11T04:46:07.697Z,30.31
2023-02-11T04:47:07.698Z,33.21
2023-02-11T04:48:07.683Z,39.91
2023-02-11T04:49:07.652Z,39.42
2023-02-11T04:50:07.676Z,36.03
2023-02-11T04:51:07.682Z,37.25
2023-02-11T04:52:07.680Z,39.19
2023-02-11T04:53:07.673Z,41.76
2023-02-11T04:54:07.643Z,42.50
2023-02-11T04:55:07.649Z,42.97
2023-02-11T04:56:07.658Z,39.29
2023-02-11T04:57:07.657Z,39.83
2023-02-11T04:58:07.663Z,37.36
2023-02-11T04:59:07.665Z,39.14
2023-02-11T05:00:07.657Z,39.69
2023-02-11T05:01:07.678Z,45.46
2023-02-11T05:02:07.694Z,45.88
2023-02-11T05:03:07.656Z,42.54
2023-02-11T05:04:07.704Z,40.42
2023-02-11T05:05:07.640Z,42.40
2023-02-11T05:06:07.646Z,42.42
2023-02-11T05:07:07.665Z,44.13
2023-02-11T05:08:07.621Z,47.45
2023-02-11T05:09:07.635Z,50.65
2023-02-11T05:10:07.636Z,46.65
2023-02-11T05:11:07.610Z,43.61
2023-02-11T05:12:07.676Z,42.27
2023-02-11T05:13:07.633Z,41.46
2023-02-11T05:14:07.617Z,39.61
2023-02-11T05:15:07.611Z,38.89
2023-02-11T05:16:07.609Z,42.91
2023-02-11T05:17:07.628Z,39.29
2023-02-11T05:18:07.633Z,39.40
2023-02-11T05:19:07.637Z,38.39
2023-02-11T05:20:07.630Z,31.74
2023-02-11T05:21:07.636Z,28.63
2023-02-11T05:22:07.651Z,26.53
2023-02-11T05:23:07.642Z,33.63
2023-02-11T05:24:07.688Z,28.84
2023-02-11T05:25:07.633Z,27.53
2023-02-11T05:26:07.636Z,26.40
2023-02-11T05:27:07.648Z,25.00
2023-02-11T05:28:07.717Z,25.84
2023-02-11T05:29:07.649Z,27.21
2023-02-11T05:30:07.621Z,36.36
2023-02-11T05:31:07.650Z,35.61
2023-02-11T05:32:07.654Z,32.71
2023-02-11T05:33:07.626Z,33.07
2023-02-11T05:34:07.632Z,33.70
2023-02-11T05:35:07.595Z,32.98
2023-02-11T05:36:07.603Z,35.96
2023-02-11T05:37:07.620Z,44.61
2023-02-11T05:38:07.609Z,44.67
2023-02-11T05:39:07.575Z,44.27
2023-02-11T05:40:07.998Z,43.75
2023-02-11T05:41:07.704Z,45.47
2023-02-11T05:42:07.579Z,45.39
2023-02-11T05:43:07.622Z,48.31
2023-02-11T05:44:07.578Z,54.11
2023-02-11T05:45:07.566Z,50.76
2023-02-11T05:46:07.608Z,49.25
2023-02-11T05:47:07.584Z,49.03
2023-02-11T05:48:07.569Z,50.44
2023-02-11T05:49:07.530Z,51.18
2023-02-11T05:50:07.526Z,56.11
2023-02-11T05:51:07.530Z,56.16
2023-02-11T05:52:07.531Z,53.10
2023-02-11T05:53:07.536Z,52.29
2023-02-11T05:54:07.557Z,55.38
2023-02-11T05:55:07.553Z,56.07
2023-02-11T05:56:07.527Z,57.66
2023-02-11T05:57:07.556Z,63.21
2023-02-11T05:58:07.550Z,63.50
2023-02-11T05:59:07.518Z,59.76
2023-02-11T06:00:07.513Z,58.66
2023-02-11T06:01:07.520Z,60.27
2023-02-11T06:02:07.501Z,58.52
2023-02-11T06:03:07.509Z,57.95
2023-02-11T06:04:07.524Z,60.43
2023-02-11T06:05:07.507Z,62.04
2023-02-11T06:06:07.478Z,57.27
2023-02-11T06:07:07.484Z,57.46
2023-02-11T06:08:07.494Z,55.91
2023-02-11T06:09:07.467Z,58.83
2023-02-11T06:10:07.452Z,61.37
2023-02-11T06:11:07.466Z,64.23
2023-02-11T06:12:07.424Z,61.58
2023-02-11T06:13:07.430Z,61.76
2023-02-11T06:14:07.420Z,63.41
2023-02-11T06:15:07.421Z,63.88
2023-02-11T06:16:07.424Z,64.23
2023-02-11T06:17:07.433Z,65.73
2023-02-11T06:18:07.442Z,65.10
2023-02-11T06:19:07.384Z,63.61
2023-02-11T06:20:07.405Z,56.81
2023-02-11T06:21:07.394Z,52.15
2023-02-11T06:22:07.415Z,55.09
2023-02-11T06:23:07.378Z,49.04
2023-02-11T06:24:07.385Z,49.06
2023-02-11T06:25:07.353Z,52.83
2023-02-11T06:26:07.358Z,45.08
2023-02-11T06:27:07.339Z,43.76
2023-02-11T06:28:07.410Z,48.82
2023-02-11T06:29:07.329Z,51.18
2023-02-11T06:30:07.339Z,53.07
2023-02-11T06:31:07.448Z,57.87
2023-02-11T06:32:10.099Z,60.43
2023-02-11T06:33:08.328Z,60.47
2023-02-11T06:34:07.303Z,59.63
2023-02-11T06:35:08.898Z,60.88
2023-02-11T06:36:07.264Z,62.02
2023-02-11T06:37:07.270Z,62.77
2023-02-11T06:38:07.283Z,64.56
2023-02-11T06:39:07.299Z,70.45
2023-02-11T06:40:07.296Z,61.31
2023-02-11T06:41:08.216Z,63.61
2023-02-11T06:42:08.077Z,63.32
2023-02-11T06:43:07.210Z,63.38
2023-02-11T06:44:07.234Z,56.40
2023-02-11T06:45:07.223Z,60.36
2023-02-11T06:46:07.216Z,60.20
2023-02-11T06:47:07.205Z,60.49
2023-02-11T06:48:07.176Z,60.93
2023-02-11T06:49:07.181Z,59.83
2023-02-11T06:50:07.181Z,54.41
2023-02-11T06:51:07.158Z,56.63
2023-02-11T06:52:07.162Z,57.12
2023-02-11T06:53:07.158Z,59.90
2023-02-11T06:54:07.236Z,55.84
2023-02-11T06:55:07.164Z,57.60
2023-02-11T06:56:07.138Z,56.78
2023-02-11T06:57:07.139Z,57.20
2023-02-11T06:58:07.157Z,59.93
2023-02-11T06:59:07.126Z,62.55
2023-02-11T07:00:07.137Z,59.65
2023-02-11T07:01:07.162Z,59.72
2023-02-11T07:02:07.216Z,62.04
2023-02-11T07:03:07.162Z,63.83
2023-02-11T07:04:07.133Z,64.09
2023-02-11T07:05:07.122Z,66.24
2023-02-11T07:06:07.133Z,72.11
2023-02-11T07:07:07.128Z,65.80
2023-02-11T07:08:07.137Z,69.12
2023-02-11T07:09:07.150Z,69.55
2023-02-11T07:10:07.131Z,69.79
2023-02-11T07:11:07.111Z,71.74
2023-02-11T07:12:07.103Z,75.18
2023-02-11T07:13:07.125Z,75.57
2023-02-11T07:14:07.130Z,72.36
2023-02-11T07:15:07.124Z,72.64
2023-02-11T07:16:07.151Z,71.78
2023-02-11T07:17:07.098Z,71.81
2023-02-11T07:18:07.059Z,70.97
2023-02-11T07:19:07.095Z,73.30
2023-02-11T07:20:07.124Z,71.78
2023-02-11T07:21:07.065Z,70.15
2023-02-11T07:22:07.053Z,69.68
2023-02-11T07:23:07.059Z,69.05
2023-02-11T07:24:10.336Z,72.92
2023-02-11T07:25:07.046Z,73.17
2023-02-11T07:26:07.034Z,74.06
2023-02-11T07:27:07.032Z,74.06
2023-02-11T07:28:07.098Z,76.35
2023-02-11T07:29:07.075Z,77.89
2023-02-11T07:30:07.449Z,75.72
2023-02-11T07:31:07.139Z,73.30
2023-02-11T07:32:07.118Z,79.27
2023-02-11T07:33:07.038Z,75.78
2023-02-11T07:34:07.073Z,76.81
2023-02-11T07:35:07.237Z,74.94
2023-02-11T07:36:07.045Z,73.13
2023-02-11T07:37:07.058Z,75.82
2023-02-11T07:38:07.067Z,76.43
2023-02-11T07:39:07.102Z,78.81
2023-02-11T07:40:07.084Z,75.49
2023-02-11T07:41:07.046Z,74.61
2023-02-11T07:42:07.045Z,74.52
2023-02-11T07:43:07.036Z,73.20
2023-02-11T07:44:07.036Z,77.17
2023-02-11T07:45:07.050Z,78.62
2023-02-11T07:46:07.018Z,74.83
2023-02-11T07:47:07.100Z,71.33
2023-02-11T07:48:07.036Z,74.09
2023-02-11T07:49:07.029Z,78.17
2023-02-11T07:50:07.051Z,78.00
2023-02-11T07:51:07.028Z,81.81
2023-02-11T07:52:07.030Z,86.32
2023-02-11T07:53:07.054Z,82.44
2023-02-11T07:54:07.041Z,80.49
2023-02-11T07:55:07.062Z,82.02
2023-02-11T07:56:07.034Z,83.37
2023-02-11T07:57:07.014Z,85.24
2023-02-11T07:58:07.052Z,87.77
2023-02-11T07:59:07.033Z,85.47
2023-02-11T08:00:07.061Z,83.36
2023-02-11T08:01:07.076Z,86.00
2023-02-11T08:02:07.061Z,86.43
2023-02-11T08:03:07.028Z,87.39
2023-02-11T08:04:07.007Z,88.66
2023-02-11T08:05:07.027Z,90.56
2023-02-11T08:06:07.000Z,87.68
2023-02-11T08:07:07.015Z,87.04
2023-02-11T08:08:06.982Z,89.01
2023-02-11T08:09:07.009Z,88.50
2023-02-11T08:10:07.024Z,89.67
2023-02-11T08:11:07.002Z,91.02
2023-02-11T08:12:06.976Z,89.02
2023-02-11T08:13:06.974Z,87.41
2023-02-11T08:14:06.984Z,90.75
2023-02-11T08:15:07.001Z,90.96
2023-02-11T08:16:06.990Z,92.57
2023-02-11T08:17:06.937Z,91.15
2023-02-11T08:18:06.967Z,93.58
2023-02-11T08:19:06.950Z,89.38
2023-02-11T08:20:06.950Z,91.54
2023-02-11T08:21:06.937Z,91.14
2023-02-11T08:22:06.925Z,91.67
2023-02-11T08:23:06.922Z,94.02
2023-02-11T08:24:06.917Z,93.70
2023-02-11T08:25:06.944Z,92.34
2023-02-11T08:26:06.907Z,92.64
2023-02-11T08:27:06.899Z,92.43
2023-02-11T08:28:06.951Z,94.08
2023-02-11T08:29:06.912Z,93.71
2023-02-11T08:30:06.948Z,92.44
2023-02-11T08:31:06.960Z,90.83
2023-02-11T08:32:06.919Z,92.11
2023-02-11T08:33:06.910Z,93.80
2023-02-11T08:34:06.887Z,95.11
2023-02-11T08:35:06.906Z,96.80
2023-02-11T08:36:06.885Z,92.10
2023-02-11T08:37:06.883Z,90.10
2023-02-11T08:38:06.885Z,93.62
2023-02-11T08:39:20.278Z,95.71
2023-02-11T08:40:07.900Z,95.81
2023-02-11T08:41:06.886Z,93.39
2023-02-11T08:42:06.893Z,90.24
2023-02-11T08:43:08.178Z,89.19
2023-02-11T08:44:06.957Z,87.65
2023-02-11T08:45:06.933Z,86.38
2023-02-11T08:46:06.900Z,87.61
2023-02-11T08:47:06.895Z,86.64
2023-02-11T08:48:06.901Z,87.95
2023-02-11T08:49:06.888Z,84.23
2023-02-11T08:50:06.950Z,84.05
2023-02-11T08:51:06.928Z,86.01
2023-02-11T08:52:06.912Z,86.08
2023-02-11T08:53:06.903Z,87.51
2023-02-11T08:54:06.899Z,88.51
2023-02-11T08:55:06.925Z,89.25
2023-02-11T08:56:06.936Z,88.11
2023-02-11T08:57:06.912Z,90.99
2023-02-11T08:58:06.904Z,89.73
2023-02-11T08:59:06.908Z,88.41
2023-02-11T09:00:06.936Z,91.82
2023-02-11T09:01:06.972Z,91.58
2023-02-11T09:02:06.976Z,89.55
2023-02-11T09:03:06.947Z,90.26
2023-02-11T09:04:06.954Z,92.55
2023-02-11T09:05:06.955Z,91.16
2023-02-11T09:06:06.975Z,93.02
2023-02-11T09:07:06.946Z,92.58
2023-02-11T09:08:06.958Z,93.55
2023-02-11T09:09:06.959Z,94.37
2023-02-11T09:10:06.981Z,94.06
2023-02-11T09:11:07.040Z,94.60
2023-02-11T09:12:06.974Z,96.32
2023-02-11T09:13:07.009Z,93.51
2023-02-11T09:14:06.986Z,96.28
2023-02-11T09:15:06.957Z,97.31
2023-02-11T09:16:06.968Z,96.32
2023-02-11T09:17:07.086Z,95.96
2023-02-11T09:18:06.992Z,97.51
2023-02-11T09:19:06.982Z,97.42
2023-02-11T09:20:09.134Z,98.74
2023-02-11T09:21:07.000Z,98.77
2023-02-11T09:22:06.990Z,98.90
2023-02-11T09:23:06.990Z,96.98
2023-02-11T09:24:06.956Z,99.54
2023-02-11T09:25:07.027Z,97.80
2023-02-11T09:26:09.138Z,100.34
2023-02-11T09:27:06.943Z,100.41
2023-02-11T09:28:07.013Z,100.44
2023-02-11T09:29:06.954Z,101.16
2023-02-11T09:30:06.989Z,101.45
2023-02-11T09:31:07.058Z,102.98
2023-02-11T09:32:09.749Z,102.17
2023-02-11T09:33:06.928Z,103.08
2023-02-11T09:34:06.943Z,103.37
2023-02-11T09:35:06.940Z,103.91
2023-02-11T09:36:06.978Z,101.86
2023-02-11T09:37:06.940Z,102.95
2023-02-11T09:38:06.960Z,105.58
2023-02-11T09:39:06.956Z,106.07
2023-02-11T09:40:07.026Z,104.37
2023-02-11T09:41:06.961Z,106.02
2023-02-11T09:42:06.940Z,103.98
2023-02-11T09:43:06.910Z,107.81
2023-02-11T09:44:06.919Z,105.68
2023-02-11T09:45:06.904Z,107.64
2023-02-11T09:46:07.049Z,105.23
2023-02-11T09:47:06.945Z,108.48
2023-02-11T09:48:06.908Z,106.10
2023-02-11T09:49:06.876Z,107.68
2023-02-11T09:50:06.891Z,106.12
2023-02-11T09:51:06.877Z,106.77
2023-02-11T09:52:06.916Z,108.15
2023-02-11T09:53:06.879Z,108.61
2023-02-11T09:54:06.860Z,108.36
2023-02-11T09:55:06.880Z,110.58
2023-02-11T09:56:06.866Z,108.36
2023-02-11T09:57:08.992Z,109.20
2023-02-11T09:58:07.855Z,109.42
2023-02-11T09:59:06.891Z,109.63
2023-02-11T10:00:06.893Z,110.47
2023-02-11T10:01:06.894Z,110.89
2023-02-11T10:02:06.869Z,111.66
2023-02-11T10:03:06.876Z,112.04
2023-02-11T10:04:06.899Z,110.97
2023-02-11T10:05:06.874Z,112.63
2023-02-11T10:06:06.860Z,111.68
2023-02-11T10:07:06.863Z,111.30
2023-02-11T10:08:06.882Z,110.21
2023-02-11T10:09:06.849Z,112.03
2023-02-11T10:10:06.866Z,111.54
2023-02-11T10:11:07.401Z,110.59
2023-02-11T10:12:06.883Z,113.34
2023-02-11T10:13:06.876Z,111.71
2023-02-11T10:14:06.860Z,113.02
2023-02-11T10:15:06.891Z,113.62
2023-02-11T10:16:06.878Z,111.19
2023-02-11T10:17:06.866Z,114.09
2023-02-11T10:18:06.908Z,114.14
2023-02-11T10:19:06.843Z,113.46
2023-02-11T10:20:06.838Z,113.65
2023-02-11T10:21:06.887Z,112.78
2023-02-11T10:22:06.874Z,114.23
2023-02-11T10:23:06.845Z,114.05
2023-02-11T10:24:06.834Z,114.42
2023-02-11T10:25:06.837Z,114.64
2023-02-11T10:26:06.842Z,114.71
2023-02-11T10:27:06.864Z,114.49
2023-02-11T10:28:06.873Z,114.68
2023-02-11T10:29:06.831Z,115.40
2023-02-11T10:30:06.827Z,116.57
2023-02-11T10:31:06.995Z,115.17
2023-02-11T10:32:06.876Z,116.46
2023-02-11T10:33:06.811Z,116.22
2023-02-11T10:34:06.821Z,117.98
2023-02-11T10:35:06.822Z,116.14
2023-02-11T10:36:06.830Z,115.83
2023-02-11T10:37:06.840Z,117.44
2023-02-11T10:38:06.830Z,118.30
2023-02-11T10:39:06.818Z,116.58
2023-02-11T10:40:06.910Z,114.51
2023-02-11T10:41:06.812Z,119.30
2023-02-11T10:42:06.860Z,117.54
2023-02-11T10:43:06.872Z,118.06
2023-02-11T10:44:06.819Z,118.19
2023-02-11T10:45:06.837Z,119.17
2023-02-11T10:46:06.928Z,119.42
2023-02-11T10:47:06.841Z,116.38
2023-02-11T10:48:06.845Z,118.19
2023-02-11T10:49:06.809Z,120.52
2023-02-11T10:50:06.819Z,119.98
2023-02-11T10:51:06.869Z,119.37
2023-02-11T11:02:06.801Z,121.37
2023-02-11T11:19:06.706Z,120.22
2023-02-11T11:32:06.676Z,119.45
2023-02-11T11:33:06.624Z,124.66
2023-02-11T11:34:06.587Z,121.70
2023-02-11T11:35:06.588Z,123.21
2023-02-11T11:36:06.569Z,125.33
2023-02-11T11:37:06.560Z,124.46
2023-02-11T11:38:06.574Z,126.77
2023-02-11T11:39:06.554Z,124.07
2023-02-11T11:40:06.560Z,124.76
2023-02-11T11:41:06.529Z,126.58
2023-02-11T11:42:06.517Z,125.55
2023-02-11T11:43:06.531Z,123.01
2023-02-11T11:44:06.494Z,125.52
2023-02-11T11:45:06.479Z,125.88
2023-02-11T11:46:06.458Z,128.46
2023-02-11T11:47:06.462Z,125.22
2023-02-11T11:48:06.465Z,123.22
2023-02-11T11:49:06.428Z,123.69
2023-02-11T11:50:06.420Z,124.34
2023-02-11T11:51:06.436Z,126.12
2023-02-11T11:52:06.416Z,126.37
2023-02-11T11:53:06.425Z,126.24
2023-02-11T11:54:06.397Z,126.52
2023-02-11T11:55:06.903Z,126.74
2023-02-11T11:56:06.360Z,127.71
2023-02-11T11:57:06.352Z,129.72
2023-02-11T11:58:06.321Z,129.64
2023-02-11T11:59:06.318Z,127.26
2023-02-11T12:00:06.333Z,125.48
2023-02-11T12:01:06.295Z,131.12
2023-02-11T12:02:08.429Z,130.70
2023-02-11T12:03:06.406Z,129.17
2023-02-11T12:04:06.317Z,122.61
2023-02-11T12:05:06.270Z,122.78
2023-02-11T12:06:06.238Z,127.82
2023-02-11T12:07:06.214Z,121.88
2023-02-11T12:08:06.372Z,125.63
2023-02-11T12:09:06.194Z,122.11
2023-02-11T12:10:06.207Z,123.54
2023-02-11T12:11:06.230Z,125.36
2023-02-11T12:12:06.324Z,127.37
2023-02-11T12:13:06.357Z,123.27
2023-02-11T12:14:06.377Z,128.06
2023-02-11T12:15:06.419Z,128.60
2023-02-11T12:16:06.495Z,128.45
2023-02-11T12:18:06.523Z,127.24
2023-02-11T12:19:06.513Z,121.79
2023-02-11T12:20:06.507Z,125.89
2023-02-11T12:21:06.502Z,129.99
2023-02-11T12:22:06.479Z,125.93
2023-02-11T12:23:06.487Z,132.31
2023-02-11T12:24:06.476Z,129.77
2023-02-11T12:25:06.529Z,125.84
2023-02-11T12:26:06.548Z,126.97
2023-02-11T12:27:06.592Z,128.67
2023-02-11T13:10:06.772Z,127.67
2023-02-11T13:11:06.753Z,134.65
2023-02-11T13:12:06.722Z,124.13
2023-02-11T13:13:06.727Z,129.94
2023-02-11T13:14:06.754Z,134.33
2023-02-11T13:15:06.709Z,128.82
2023-02-11T13:16:06.740Z,129.03
2023-02-11T13:17:06.694Z,135.01
2023-02-11T13:18:06.680Z,129.96
2023-02-11T13:19:06.685Z,128.19
2023-02-11T13:21:06.645Z,127.45
2023-02-11T15:48:05.391Z,108.04
2023-02-11T15:49:05.365Z,103.64
2023-02-11T15:50:05.414Z,106.39
2023-02-11T15:51:05.336Z,104.00
2023-02-11T15:52:05.324Z,108.69
2023-02-11T15:53:05.374Z,108.40
2023-02-11T15:54:05.302Z,105.42
2023-02-11T15:55:06.256Z,102.88
2023-02-11T15:56:05.281Z,99.05
2023-02-11T15:57:05.242Z,102.81
2023-02-11T15:58:05.269Z,101.90
2023-02-11T15:59:05.230Z,104.16
2023-02-11T16:00:05.202Z,104.02
2023-02-11T16:01:05.208Z,94.43
2023-02-11T16:02:05.269Z,102.31
2023-02-11T16:03:05.180Z,97.95
2023-02-11T16:04:05.217Z,103.27
2023-02-11T16:05:05.138Z,93.04
2023-02-11T16:06:05.151Z,101.27
2023-02-11T16:07:05.120Z,94.88
2023-02-11T16:08:06.585Z,101.38
2023-02-11T16:09:05.113Z,100.14
2023-02-11T16:10:05.089Z,100.60
2023-02-11T16:11:05.066Z,103.82
2023-02-11T16:12:05.059Z,96.37
2023-02-11T16:13:05.070Z,92.48
2023-02-11T16:14:07.043Z,93.93
2023-02-11T16:15:05.021Z,97.67
2023-02-11T16:16:05.092Z,97.63
2023-02-11T16:17:05.023Z,94.70
2023-02-11T16:18:04.997Z,97.65
2023-02-11T16:19:06.156Z,97.34
2023-02-11T16:20:04.963Z,92.89
2023-02-11T16:21:04.935Z,90.76
2023-02-11T16:22:04.956Z,94.17
2023-02-11T16:23:04.962Z,98.08
2023-02-11T16:24:04.930Z,95.98
2023-02-11T16:25:04.906Z,97.69
2023-02-11T16:26:04.896Z,88.60
2023-02-11T16:27:04.862Z,94.89
2023-02-11T16:28:05.030Z,92.55
2023-02-11T16:29:04.968Z,95.03